Time;durP1;ratioP1;P1;durP2;ratioP2;P2;SDS_P1;SDS_P2;PMS_P1;PMS_P2;Temp;Humidity;BMP_temperature;BMP_pressure;BME280_temperature;BME280_humidity;BME280_pressure;Samples;Min_cycle;Max_cycle;Signal;HPM_P1;HPM_P2
2022/04/01 00:00:52;;;;;;;0.60;0.60;;;;;;;5.74;86.99;97391.01;1761566;80;21448;-63
2022/04/01 00:03:19;;;;;;;0.60;0.60;;;;;;;5.95;86.48;97395.47;1759719;80;21504;-62
2022/04/01 00:05:47;;;;;;;0.60;0.53;;;;;;;5.89;86.47;97404.97;1754036;80;21516;-62
2022/04/01 00:08:16;;;;;;;1.17;0.50;;;;;;;6.01;86.12;97406.59;1746518;81;22190;-62
2022/04/01 00:10:46;;;;;;;0.53;0.53;;;;;;;6.01;86.03;97403.95;1730717;82;20942;-64
2022/04/01 00:13:13;;;;;;;0.82;0.40;;;;;;;6.05;86.32;97384.89;1726145;82;20879;-63
2022/04/01 00:15:40;;;;;;;0.60;0.60;;;;;;;6.17;85.35;97393.94;1727615;82;20927;-62
2022/04/01 00:18:07;;;;;;;0.50;0.50;;;;;;;6.07;85.46;97386.86;1727302;82;20891;-64
2022/04/01 00:20:35;;;;;;;1.00;0.68;;;;;;;6.03;85.28;97385.59;1726830;82;20947;-63
2022/04/01 00:23:02;;;;;;;0.50;0.50;;;;;;;6.04;85.28;97378.00;1726246;83;22567;-65
2022/04/01 00:25:31;;;;;;;0.50;0.50;;;;;;;5.75;86.19;97376.00;1726376;82;21454;-64
2022/04/01 00:27:59;;;;;;;0.42;0.42;;;;;;;5.63;87.03;97373.58;1725939;82;21093;-63
2022/04/01 00:30:27;;;;;;;0.50;0.50;;;;;;;5.85;86.52;97361.50;1728063;82;20956;-63
2022/04/01 00:32:54;;;;;;;0.42;0.42;;;;;;;5.89;86.23;97352.19;1726916;82;20944;-64
2022/04/01 00:35:21;;;;;;;0.50;0.40;;;;;;;5.90;86.17;97347.23;1727601;82;21856;-63
2022/04/01 00:37:49;;;;;;;0.65;0.65;;;;;;;5.97;86.00;97339.38;1727428;82;21524;-62
2022/04/01 00:40:16;;;;;;;0.50;0.50;;;;;;;6.00;85.88;97349.02;1726376;82;20946;-62
2022/04/01 00:42:45;;;;;;;0.50;0.50;;;;;;;6.12;85.27;97342.72;1719094;82;21406;-61
2022/04/01 00:45:12;;;;;;;0.60;0.60;;;;;;;6.25;84.94;97340.66;1726941;82;21481;-62
2022/04/01 00:47:39;;;;;;;0.75;0.75;;;;;;;6.23;84.81;97326.84;1726836;82;21274;-62
2022/04/01 00:50:08;;;;;;;3.65;2.20;;;;;;;6.19;84.88;97323.27;1727883;82;20930;-61
2022/04/01 00:52:36;;;;;;;0.90;0.90;;;;;;;6.22;84.87;97323.38;1716012;82;20911;-62
2022/04/01 00:55:08;;;;;;;0.40;0.40;;;;;;;6.23;84.74;97317.89;1731873;82;21432;-64
2022/04/01 00:57:36;;;;;;;0.90;0.90;;;;;;;6.26;84.73;97321.17;1715766;83;21445;-63
2022/04/01 01:00:06;;;;;;;0.80;0.80;;;;;;;6.19;84.46;97316.66;1727741;82;21263;-63
2022/04/01 01:02:34;;;;;;;0.82;0.80;;;;;;;6.20;85.04;97315.64;1732049;82;21481;-65
2022/04/01 01:05:05;;;;;;;0.70;0.70;;;;;;;6.13;85.25;97328.49;1727731;82;20947;-64
2022/04/01 01:07:33;;;;;;;1.12;1.02;;;;;;;6.08;85.62;97315.06;1726613;82;20961;-62
2022/04/01 01:10:01;;;;;;;0.75;0.75;;;;;;;6.15;85.43;97319.37;1750171;80;21038;-65
2022/04/01 01:12:29;;;;;;;1.07;1.02;;;;;;;6.24;85.22;97314.75;1758998;80;21301;-64
2022/04/01 01:15:10;;;;;;;0.80;0.80;;;;;;;6.24;85.07;97313.44;1747000;81;20906;-63
2022/04/01 01:17:39;;;;;;;0.78;0.78;;;;;;;6.10;85.54;97303.83;1754899;80;20930;-63
2022/04/01 01:20:17;;;;;;;0.70;0.70;;;;;;;6.08;85.74;97296.59;1752299;80;21029;-63
2022/04/01 01:22:48;;;;;;;1.10;1.00;;;;;;;6.11;86.20;97295.70;1755877;80;20891;-65
2022/04/01 01:25:15;;;;;;;0.80;0.80;;;;;;;6.12;85.86;97293.38;1750491;80;21227;-64
2022/04/01 01:27:45;;;;;;;1.00;1.00;;;;;;;6.03;86.17;97287.11;1747938;80;20991;-63
2022/04/01 01:30:13;;;;;;;0.72;0.72;;;;;;;6.06;86.21;97290.69;1740031;80;21519;-63
2022/04/01 01:32:40;;;;;;;1.20;1.10;;;;;;;6.06;86.93;97295.97;1749123;80;21504;-62
2022/04/01 01:35:09;;;;;;;0.90;0.90;;;;;;;6.10;86.30;97296.70;1749319;80;20973;-61
2022/04/01 01:37:37;;;;;;;1.00;1.00;;;;;;;6.10;86.29;97295.37;1756521;80;21269;-66
2022/04/01 01:40:08;;;;;;;1.00;1.00;;;;;;;6.15;86.09;97294.28;1749806;80;21192;-64
2022/04/01 01:42:36;;;;;;;0.90;0.90;;;;;;;6.16;86.05;97303.84;1742469;80;20935;-62
2022/04/01 01:45:06;;;;;;;0.90;0.90;;;;;;;6.14;86.01;97297.95;1743493;80;20971;-66
2022/04/01 01:47:34;;;;;;;0.95;0.90;;;;;;;6.08;86.33;97294.77;1755614;80;20949;-64
2022/04/01 01:55:33;;;;;;;1.00;1.00;;;;;;;5.96;87.30;97296.33;1746132;80;20903;-63
2022/04/01 01:58:03;;;;;;;1.15;1.10;;;;;;;6.13;86.89;97292.36;1757237;80;20985;-63
2022/04/01 02:00:30;;;;;;;1.20;1.10;;;;;;;5.97;87.17;97291.34;1743560;80;21012;-62
2022/04/01 02:03:00;;;;;;;1.05;1.05;;;;;;;5.93;87.56;97286.65;1733445;81;20981;-64
2022/04/01 02:05:27;;;;;;;1.00;1.00;;;;;;;6.01;87.32;97286.50;1751560;80;20879;-62
2022/04/01 02:07:56;;;;;;;1.12;1.10;;;;;;;6.05;87.26;97280.63;1742017;82;21510;-62
2022/04/01 02:10:25;;;;;;;1.72;1.62;;;;;;;6.27;86.52;97274.77;1735353;81;20938;-62
2022/04/01 02:12:52;;;;;;;1.17;1.07;;;;;;;6.08;87.91;97267.05;1733928;82;21539;-64
2022/04/01 02:15:21;;;;;;;1.07;1.05;;;;;;;6.04;87.97;97268.96;1735487;82;21249;-64
2022/04/01 02:17:49;;;;;;;1.15;1.05;;;;;;;5.95;88.32;97268.30;1734685;82;21523;-60
2022/04/01 02:20:18;;;;;;;0.88;0.88;;;;;;;5.98;88.47;97266.59;1734851;82;21087;-62
2022/04/01 02:22:45;;;;;;;1.35;1.10;;;;;;;6.02;88.55;97264.39;1734615;82;20994;-63
2022/04/01 02:25:13;;;;;;;1.00;0.90;;;;;;;5.97;88.73;97264.16;1735355;82;20926;-65
2022/04/01 02:27:41;;;;;;;0.98;0.90;;;;;;;5.94;89.50;97260.58;1735430;82;21287;-64
2022/04/01 02:30:13;;;;;;;1.17;1.07;;;;;;;5.85;93.13;97257.78;1733848;82;20958;-65
2022/04/01 02:32:43;;;;;;;1.20;1.10;;;;;;;6.03;94.20;97254.12;1728706;82;20994;-62
2022/04/01 02:35:21;;;;;;;1.00;0.90;;;;;;;6.13;93.59;97255.39;1731575;82;20978;-65
2022/04/01 02:37:51;;;;;;;0.60;0.60;;;;;;;6.36;91.80;97252.97;1734157;82;20978;-61
2022/04/01 02:40:18;;;;;;;0.70;0.70;;;;;;;6.44;90.87;97247.52;1735295;82;21255;-61
2022/04/01 02:42:46;;;;;;;1.17;0.88;;;;;;;6.52;90.25;97242.03;1730783;82;21035;-63
2022/04/01 02:45:15;;;;;;;0.60;0.60;;;;;;;6.56;89.96;97235.36;1732598;82;20973;-62
2022/04/01 02:47:43;;;;;;;0.80;0.80;;;;;;;6.58;89.60;97224.90;1735764;82;21409;-65
2022/04/01 02:50:11;;;;;;;0.82;0.70;;;;;;;6.53;91.60;97223.36;1735884;82;20898;-62
2022/04/01 02:52:40;;;;;;;0.60;0.60;;;;;;;6.48;90.47;97228.93;1735173;82;21036;-64
2022/04/01 02:55:09;;;;;;;0.70;0.70;;;;;;;6.49;90.87;97222.64;1734557;82;21037;-65
2022/04/01 02:57:36;;;;;;;0.70;0.70;;;;;;;6.51;90.73;97223.25;1701808;83;20986;-64
2022/04/01 03:00:09;;;;;;;0.60;0.60;;;;;;;6.32;91.30;97223.99;1729040;82;21472;-62
2022/04/01 03:02:38;;;;;;;0.47;0.47;;;;;;;6.52;90.25;97224.36;1725594;82;20986;-64
2022/04/01 03:05:07;;;;;;;0.80;0.80;;;;;;;6.56;89.91;97227.43;1732361;82;21257;-62
2022/04/01 03:07:35;;;;;;;0.60;0.60;;;;;;;6.50;89.66;97227.72;1732002;82;20855;-61
2022/04/01 03:10:04;;;;;;;0.70;0.45;;;;;;;6.50;89.47;97224.25;1730013;81;20982;-65
2022/04/01 03:12:33;;;;;;;0.60;0.60;;;;;;;6.35;89.46;97220.45;1720279;82;21552;-65
2022/04/01 03:15:19;;;;;;;0.50;0.50;;;;;;;6.48;89.09;97214.40;1724034;82;21037;-64
2022/04/01 03:18:05;;;;;;;0.57;0.57;;;;;;;6.42;88.82;97204.12;1722153;82;21904;-64
2022/04/01 03:20:35;;;;;;;0.50;0.50;;;;;;;6.66;87.46;97204.08;1685591;84;20982;-63
2022/04/01 03:23:05;;;;;;;0.60;0.60;;;;;;;6.66;86.67;97202.27;1659293;84;20913;-65
2022/04/01 03:25:35;;;;;;;0.70;0.60;;;;;;;6.68;86.47;97202.86;1679942;85;20911;-62
2022/04/01 03:28:20;;;;;;;0.57;0.57;;;;;;;6.56;86.38;97204.98;1607390;88;21115;-62
2022/04/01 03:30:51;;;;;;;0.50;0.50;;;;;;;6.55;86.67;97202.84;1656304;85;21258;-64
2022/04/01 03:33:18;;;;;;;0.60;0.60;;;;;;;6.31;87.52;97199.94;1677788;85;21042;-60
2022/04/01 03:35:47;;;;;;;1.00;0.60;;;;;;;6.35;87.46;97193.23;1678712;85;21582;-62
2022/04/01 03:38:14;;;;;;;0.50;0.50;;;;;;;6.29;87.81;97196.16;1679786;85;21493;-65
2022/04/01 03:40:45;;;;;;;0.60;0.60;;;;;;;6.26;88.46;97199.19;1682557;85;21457;-63
2022/04/01 03:43:12;;;;;;;0.53;0.53;;;;;;;6.29;88.45;97200.61;1680283;85;21236;-61
2022/04/01 03:45:46;;;;;;;0.57;0.57;;;;;;;6.28;87.84;97198.51;1682388;85;20999;-64
2022/04/01 03:48:31;;;;;;;1.20;0.70;;;;;;;6.36;87.46;97204.91;1678763;85;20972;-61
2022/04/01 03:50:58;;;;;;;1.92;0.65;;;;;;;6.41;86.99;97202.52;1682445;85;20997;-63
2022/04/01 03:53:29;;;;;;;0.50;0.50;;;;;;;6.51;86.74;97203.44;1680831;85;21473;-63
2022/04/01 03:55:59;;;;;;;0.50;0.50;;;;;;;6.63;86.05;97207.94;1682490;85;21203;-65
2022/04/01 03:58:47;;;;;;;0.53;0.47;;;;;;;6.67;85.80;97204.41;1692452;84;21389;-65
2022/04/01 04:01:28;;;;;;;0.57;0.57;;;;;;;6.61;85.79;97208.65;1688480;84;21061;-66
2022/04/01 04:04:00;;;;;;;1.07;1.00;;;;;;;6.59;85.98;97212.51;1692187;84;20914;-65
2022/04/01 04:06:27;;;;;;;0.70;0.70;;;;;;;6.65;85.80;97216.97;1676641;84;20895;-63
2022/04/01 04:08:57;;;;;;;0.50;0.50;;;;;;;6.59;85.79;97213.33;1692331;84;21241;-65
2022/04/01 04:11:26;;;;;;;0.50;0.50;;;;;;;6.58;86.08;97213.51;1719369;83;21508;-62
2022/04/01 04:14:01;;;;;;;;;;;;;;;6.57;86.14;97215.86;1716967;83;21603;-64
2022/04/01 04:16:37;;;;;;;0.90;0.90;;;;;;;6.58;86.17;97213.01;1706319;83;20657;-63
2022/04/01 04:19:12;;;;;;;1.12;0.90;;;;;;;6.59;86.07;97221.75;1755606;81;20840;-64
2022/04/01 04:22:02;;;;;;;0.70;0.70;;;;;;;6.54;86.13;97208.33;1740126;81;21226;-66
2022/04/01 04:24:35;;;;;;;0.60;0.60;;;;;;;6.60;85.84;97208.83;1752311;81;21737;-63
2022/04/01 04:27:12;;;;;;;3.02;1.05;;;;;;;6.64;85.66;97204.30;1753707;81;20930;-63
2022/04/01 04:29:51;;;;;;;1.05;0.62;;;;;;;6.69;86.04;97207.14;1745618;81;21027;-64
2022/04/01 04:32:40;;;;;;;0.85;0.72;;;;;;;6.66;86.87;97206.72;1706720;83;21089;-65
2022/04/01 04:35:10;;;;;;;0.88;0.78;;;;;;;6.61;87.70;97203.37;1717522;83;21238;-63
2022/04/01 04:37:45;;;;;;;1.12;0.88;;;;;;;6.58;88.06;97201.63;1744768;81;20839;-67
2022/04/01 04:40:15;;;;;;;1.27;0.82;;;;;;;6.63;88.15;97196.05;1727682;81;20971;-62
2022/04/01 04:42:47;;;;;;;2.62;0.98;;;;;;;6.63;88.37;97200.02;1755567;81;20946;-64
2022/04/01 04:45:20;;;;;;;1.05;1.00;;;;;;;6.64;88.36;97196.87;1751413;80;20938;-65
2022/04/01 04:47:49;;;;;;;1.57;1.47;;;;;;;6.65;87.84;97199.30;1755525;81;21421;-64
2022/04/01 04:50:17;;;;;;;1.35;1.25;;;;;;;6.63;87.71;97190.77;1755175;81;21106;-64
2022/04/01 04:52:51;;;;;;;1.00;0.90;;;;;;;6.74;87.37;97186.72;1753336;80;20919;-63
2022/04/01 04:55:19;;;;;;;1.27;1.17;;;;;;;6.69;87.27;97186.52;1752618;81;21643;-66
2022/04/01 04:58:00;;;;;;;1.12;1.00;;;;;;;7.03;86.06;97181.06;1754784;81;21044;-66
2022/04/01 05:00:28;;;;;;;1.30;1.15;;;;;;;6.77;86.50;97177.08;1754056;81;21240;-61
2022/04/01 05:03:16;;;;;;;2.08;1.32;;;;;;;6.73;86.78;97189.05;1753070;81;20946;-64
2022/04/01 05:05:51;;;;;;;2.08;1.90;;;;;;;6.87;86.48;97183.27;1675449;83;21026;-64
2022/04/01 05:08:52;;;;;;;3.12;1.90;;;;;;;6.87;86.14;97183.27;1755316;81;21023;-63
2022/04/01 05:12:08;;;;;;;1.70;1.60;;;;;;;6.89;86.08;97185.20;1754203;81;21118;-64
2022/04/01 05:15:08;;;;;;;2.67;1.47;;;;;;;6.88;85.80;97190.20;1706076;81;21523;-65
2022/04/01 05:18:06;;;;;;;1.92;1.50;;;;;;;6.94;85.59;97190.19;1743485;81;20942;-61
2022/04/01 05:20:38;;;;;;;3.50;2.05;;;;;;;6.86;85.84;97189.06;1679402;84;20987;-64
2022/04/01 05:23:15;;;;;;;1.70;1.60;;;;;;;6.86;86.01;97195.67;1737076;81;20915;-64
2022/04/01 05:25:47;;;;;;;1.80;1.70;;;;;;;6.88;85.88;97195.48;1756392;81;21084;-63
2022/04/01 05:28:32;;;;;;;1.90;1.77;;;;;;;6.89;85.76;97197.09;1706106;82;21265;-65
2022/04/01 05:31:20;;;;;;;2.05;1.77;;;;;;;6.86;85.95;97194.88;1718803;83;20982;-63
2022/04/01 05:34:01;;;;;;;1.80;1.70;;;;;;;6.87;86.02;97203.92;1746422;81;21103;-62
2022/04/01 05:36:28;;;;;;;2.90;1.85;;;;;;;6.91;85.75;97205.66;1756639;81;20971;-65
2022/04/01 05:38:57;;;;;;;2.17;1.95;;;;;;;6.92;85.55;97209.41;1756496;81;20883;-63
2022/04/01 05:41:25;;;;;;;1.98;1.77;;;;;;;6.92;85.42;97208.09;1756081;81;22150;-64
2022/04/01 05:43:54;;;;;;;2.22;1.98;;;;;;;6.92;85.41;97210.73;1754129;81;20889;-65
2022/04/01 05:46:25;;;;;;;2.75;2.05;;;;;;;7.00;85.25;97212.36;1752226;81;21002;-65
2022/04/01 05:48:54;;;;;;;2.27;2.08;;;;;;;6.96;85.25;97212.47;1756328;81;20951;-62
2022/04/01 05:51:21;;;;;;;2.72;2.22;;;;;;;6.96;85.17;97207.19;1756044;81;21538;-63
2022/04/01 05:53:50;;;;;;;2.50;2.30;;;;;;;7.00;84.99;97198.64;1755856;81;21272;-64
2022/04/01 05:56:18;;;;;;;2.55;1.82;;;;;;;6.92;85.12;97198.84;1754885;81;20967;-64
2022/04/01 05:58:46;;;;;;;2.90;2.47;;;;;;;6.83;85.20;97202.67;1756195;81;20898;-63
2022/04/01 06:01:27;;;;;;;2.33;2.10;;;;;;;6.90;85.38;97206.66;1755771;81;20986;-64
2022/04/01 06:04:13;;;;;;;3.58;2.27;;;;;;;6.93;85.27;97208.41;1755225;81;21096;-63
2022/04/01 06:06:42;;;;;;;4.50;2.47;;;;;;;6.89;85.48;97207.67;1755515;81;21253;-65
2022/04/01 06:09:25;;;;;;;2.52;1.80;;;;;;;6.97;85.31;97204.83;1725323;81;21046;-64
2022/04/01 06:12:35;;;;;;;1.90;1.77;;;;;;;6.96;85.20;97202.69;1708290;83;20910;-63
2022/04/01 06:15:48;;;;;;;3.42;2.27;;;;;;;7.00;85.03;97198.64;1755791;81;21005;-63
2022/04/01 06:19:08;;;;;;;2.33;2.12;;;;;;;6.96;85.37;97197.41;1755936;81;20990;-64
2022/04/01 06:21:46;;;;;;;2.52;2.33;;;;;;;7.02;85.16;97207.18;1744006;81;21189;-61
2022/04/01 06:24:34;;;;;;;2.45;1.90;;;;;;;7.05;85.08;97202.81;1754526;81;21304;-64
2022/04/01 06:27:03;;;;;;;4.42;2.40;;;;;;;7.06;85.07;97200.98;1696688;81;21054;-65
2022/04/01 06:29:38;;;;;;;2.27;2.08;;;;;;;7.05;85.19;97198.84;1755719;81;20946;-64
2022/04/01 06:32:20;;;;;;;1.85;1.75;;;;;;;7.12;85.04;97198.83;1755010;81;21555;-63
2022/04/01 06:35:12;;;;;;;2.35;2.10;;;;;;;7.15;85.09;97199.25;1747254;81;21934;-64
2022/04/01 06:37:47;;;;;;;2.47;2.27;;;;;;;7.23;85.03;97201.70;1728526;82;20919;-63
2022/04/01 06:40:16;;;;;;;2.40;2.20;;;;;;;7.27;84.93;97201.58;1717991;83;20954;-66
2022/04/01 06:42:50;;;;;;;2.90;2.52;;;;;;;7.26;84.85;97199.97;1755421;81;20863;-64
2022/04/01 06:45:39;;;;;;;2.65;2.17;;;;;;;7.30;84.75;97203.82;1756310;81;20983;-63
2022/04/01 06:48:26;;;;;;;2.20;2.00;;;;;;;7.35;84.70;97202.70;1755640;81;21878;-63
2022/04/01 06:50:56;;;;;;;1.82;1.72;;;;;;;7.44;84.29;97202.80;1734891;80;21006;-65
2022/04/01 06:53:44;;;;;;;2.62;1.80;;;;;;;7.49;84.29;97200.86;1753914;81;20973;-62
2022/04/01 06:56:33;;;;;;;2.62;2.42;;;;;;;7.55;84.04;97194.75;1642157;85;21179;-64
2022/04/01 06:59:01;;;;;;;2.58;2.37;;;;;;;7.52;84.26;97200.95;1643234;86;21622;-64
2022/04/01 07:01:30;;;;;;;3.08;2.40;;;;;;;7.52;86.49;97191.69;1684506;81;21226;-63
2022/04/01 07:04:00;;;;;;;2.65;2.42;;;;;;;7.51;86.64;97195.38;1755235;81;20977;-62
2022/04/01 07:06:28;;;;;;;2.08;1.92;;;;;;;7.68;85.92;97193.41;1755182;81;20885;-63
2022/04/01 07:08:57;;;;;;;3.17;2.15;;;;;;;7.80;85.24;97196.21;1755816;81;20945;-68
2022/04/01 07:11:27;;;;;;;2.52;2.00;;;;;;;7.71;85.36;97187.70;1736752;81;20907;-65
2022/04/01 07:13:55;;;;;;;1.98;1.77;;;;;;;7.72;85.28;97189.81;1729309;82;21862;-67
2022/04/01 07:16:25;;;;;;;2.80;2.58;;;;;;;7.69;85.09;97191.58;1727215;82;20947;-63
2022/04/01 07:18:54;;;;;;;3.55;2.98;;;;;;;7.66;84.91;97185.38;1728288;82;21006;-67
2022/04/01 07:21:24;;;;;;;4.55;3.47;;;;;;;7.61;85.24;97195.27;1728767;82;20972;-64
2022/04/01 07:23:52;;;;;;;5.28;3.87;;;;;;;7.60;89.09;97192.80;1728324;83;21026;-63
2022/04/01 07:30:22;;;;;;;2.15;1.95;;;;;;;7.82;85.03;97198.95;1726582;83;21019;-64
2022/04/01 07:32:58;;;;;;;2.20;1.90;;;;;;;7.85;84.69;97195.08;1728320;83;21025;-61
2022/04/01 07:35:29;;;;;;;3.00;2.20;;;;;;;7.86;84.26;97194.06;1730062;82;20903;-62
2022/04/01 07:37:59;;;;;;;2.77;2.25;;;;;;;7.88;83.99;97190.70;1712666;83;20936;-63
2022/04/01 07:40:27;;;;;;;2.65;1.60;;;;;;;7.76;83.91;97185.25;1728616;82;21249;-62
2022/04/01 07:42:55;;;;;;;1.62;1.52;;;;;;;7.74;84.15;97189.13;1728144;83;20948;-64
2022/04/01 07:45:24;;;;;;;1.80;1.65;;;;;;;7.78;84.19;97192.97;1710741;82;20950;-65
2022/04/01 07:47:54;;;;;;;1.95;1.80;;;;;;;7.86;83.78;97192.24;1729609;82;21548;-63
2022/04/01 07:50:23;;;;;;;1.67;1.55;;;;;;;7.80;83.70;97196.21;1729175;82;20970;-66
2022/04/01 07:52:52;;;;;;;1.77;1.62;;;;;;;7.85;83.72;97194.57;1729443;82;21241;-62
2022/04/01 07:55:22;;;;;;;3.02;1.65;;;;;;;7.96;83.42;97191.80;1728680;82;20928;-65
2022/04/01 07:57:52;;;;;;;2.25;1.75;;;;;;;8.07;82.97;97193.80;1729682;82;20974;-66
2022/04/01 08:00:20;;;;;;;1.37;1.27;;;;;;;8.45;81.72;97189.37;1728978;82;21009;-65
2022/04/01 08:02:49;;;;;;;1.77;1.62;;;;;;;8.12;82.56;97191.34;1729230;82;21477;-64
2022/04/01 08:05:18;;;;;;;2.55;1.72;;;;;;;8.11;82.61;97184.94;1728409;82;21150;-62
2022/04/01 08:07:47;;;;;;;1.90;1.52;;;;;;;8.20;81.93;97184.48;1728382;82;21422;-67
2022/04/01 08:10:16;;;;;;;1.30;1.20;;;;;;;8.08;82.26;97178.23;1729910;81;20887;-64
2022/04/01 08:12:45;;;;;;;2.10;1.75;;;;;;;8.02;82.24;97180.37;1755584;81;20938;-66
2022/04/01 08:15:15;;;;;;;1.32;1.20;;;;;;;7.96;82.42;97181.20;1756631;81;20887;-64
2022/04/01 08:17:45;;;;;;;1.72;1.62;;;;;;;8.00;82.40;97185.08;1756616;81;21248;-65
2022/04/01 08:20:15;;;;;;;2.10;1.90;;;;;;;7.98;82.65;97187.91;1755883;81;21507;-67
2022/04/01 08:22:45;;;;;;;1.87;1.77;;;;;;;8.06;82.82;97182.89;1755707;81;20907;-63
2022/04/01 08:25:13;;;;;;;1.85;1.67;;;;;;;8.02;82.69;97180.37;1756031;81;20903;-60
2022/04/01 08:27:44;;;;;;;1.60;1.50;;;;;;;7.98;82.79;97185.27;1755767;81;20930;-63
2022/04/01 08:30:15;;;;;;;2.37;1.60;;;;;;;7.99;82.71;97187.41;1722123;81;21089;-64
2022/04/01 08:32:44;;;;;;;2.25;2.05;;;;;;;7.93;82.87;97182.44;1756384;81;20946;-64
2022/04/01 08:35:17;;;;;;;1.40;1.30;;;;;;;8.01;82.14;97185.36;1756671;81;20908;-64
2022/04/01 08:37:46;;;;;;;2.30;1.67;;;;;;;8.01;82.62;97186.68;1756458;81;20859;-65
2022/04/01 08:40:14;;;;;;;1.50;1.30;;;;;;;7.97;82.68;97189.46;1722610;81;20986;-63
2022/04/01 08:42:48;;;;;;;2.02;1.30;;;;;;;7.99;82.58;97182.94;1756401;81;21250;-63
2022/04/01 08:45:19;;;;;;;1.60;1.50;;;;;;;7.99;82.64;97182.94;1756174;81;21410;-67
2022/04/01 08:47:48;;;;;;;1.12;1.10;;;;;;;8.03;82.69;97192.58;1756504;81;20942;-63
2022/04/01 08:50:20;;;;;;;1.10;0.95;;;;;;;8.07;82.52;97184.53;1756671;81;21516;-65
2022/04/01 08:52:48;;;;;;;2.35;1.42;;;;;;;8.08;82.68;97186.95;1756447;81;21436;-61
2022/04/01 08:55:16;;;;;;;1.45;1.30;;;;;;;8.21;82.13;97187.95;1756017;81;21298;-65
2022/04/01 08:57:45;;;;;;;1.25;1.15;;;;;;;8.26;82.65;97183.65;1756398;81;20903;-64
2022/04/01 09:00:22;;;;;;;1.47;1.12;;;;;;;8.07;82.97;97184.53;1755203;81;21038;-66
2022/04/01 09:03:04;;;;;;;1.37;0.90;;;;;;;8.18;81.99;97185.21;1754780;81;21090;-63
2022/04/01 09:05:34;;;;;;;1.52;1.42;;;;;;;8.12;82.57;97192.66;1705360;81;20950;-64
2022/04/01 09:08:05;;;;;;;1.62;1.17;;;;;;;8.03;82.66;97192.58;1755587;81;21232;-62
2022/04/01 09:10:55;;;;;;;1.45;1.35;;;;;;;8.33;82.31;97196.87;1726444;81;20966;-63
2022/04/01 09:13:28;;;;;;;2.17;1.65;;;;;;;8.15;82.41;97198.86;1756650;81;21484;-61
2022/04/01 09:15:58;;;;;;;1.75;1.45;;;;;;;8.12;82.16;97199.78;1756412;81;21425;-62
2022/04/01 09:18:43;;;;;;;2.33;1.50;;;;;;;8.32;81.54;97202.69;1755940;81;21444;-63
2022/04/01 09:21:13;;;;;;;1.42;1.20;;;;;;;8.22;81.73;97203.61;1755848;81;21805;-64
2022/04/01 09:23:47;;;;;;;1.55;1.22;;;;;;;8.11;82.54;97204.27;1761697;81;21496;-63
2022/04/01 09:26:21;;;;;;;1.12;0.98;;;;;;;8.11;82.52;97202.16;1756107;81;20970;-62
2022/04/01 09:28:52;;;;;;;1.52;1.27;;;;;;;8.27;82.07;97206.98;1721620;82;21448;-60
2022/04/01 09:31:20;;;;;;;1.10;1.05;;;;;;;8.49;81.21;97205.67;1753883;81;21602;-63
2022/04/01 09:33:52;;;;;;;1.47;1.37;;;;;;;8.31;81.39;97215.65;1756508;81;21887;-63
2022/04/01 09:36:29;;;;;;;1.15;1.10;;;;;;;8.15;82.48;97208.13;1755899;81;20958;-62
2022/04/01 09:39:07;;;;;;;;;;;;;;;8.22;82.88;97208.91;1758969;81;21046;-62
2022/04/01 09:41:41;;;;;;;1.50;1.40;;;;;;;8.26;83.14;97202.19;1756428;81;20111;-66
2022/04/01 09:44:23;;;;;;;1.30;1.17;;;;;;;8.24;83.40;97200.23;1756415;81;20894;-64
2022/04/01 09:46:56;;;;;;;3.55;1.45;;;;;;;8.28;83.28;97198.84;1756381;81;21222;-67
2022/04/01 09:49:39;;;;;;;2.00;1.17;;;;;;;8.35;82.90;97206.75;1756504;81;20966;-64
2022/04/01 09:52:09;;;;;;;1.17;1.02;;;;;;;8.40;82.79;97205.60;1754887;81;20994;-61
2022/04/01 09:54:49;;;;;;;0.85;0.80;;;;;;;8.40;82.43;97209.07;1744646;81;21488;-64
2022/04/01 09:57:21;;;;;;;1.00;1.00;;;;;;;8.78;81.33;97206.94;1756660;81;21460;-64
2022/04/01 09:59:52;;;;;;;0.90;0.90;;;;;;;8.72;81.46;97206.45;1756387;81;20989;-63
2022/04/01 10:02:21;;;;;;;1.17;1.07;;;;;;;8.57;81.35;97204.92;1755752;81;21516;-64
2022/04/01 10:04:49;;;;;;;1.17;1.07;;;;;;;8.48;81.66;97207.50;1756264;81;20942;-63
2022/04/01 10:07:18;;;;;;;1.90;0.93;;;;;;;8.38;81.83;97207.66;1755057;81;21449;-62
2022/04/01 10:09:47;;;;;;;2.35;1.30;;;;;;;8.37;81.63;97209.48;1756319;81;20974;-61
2022/04/01 10:12:16;;;;;;;1.92;1.02;;;;;;;8.44;81.87;97201.52;1755969;81;21247;-64
2022/04/01 10:14:45;;;;;;;2.00;1.40;;;;;;;8.35;82.20;97200.12;1756453;81;21500;-63
2022/04/01 10:17:14;;;;;;;1.10;1.00;;;;;;;8.29;82.60;97199.13;1756499;81;21496;-63
2022/04/01 10:19:45;;;;;;;1.72;1.30;;;;;;;8.33;82.90;97200.34;1755517;81;21594;-64
2022/04/01 10:22:16;;;;;;;1.42;1.30;;;;;;;8.32;84.55;97203.19;1755530;81;20958;-64
2022/04/01 10:25:01;;;;;;;1.32;1.22;;;;;;;8.37;84.08;97206.84;1756218;81;21281;-64
2022/04/01 10:27:44;;;;;;;1.00;0.90;;;;;;;8.36;83.89;97211.85;1756487;81;21429;-63
2022/04/01 10:30:15;;;;;;;3.58;1.57;;;;;;;8.37;82.84;97205.52;1756009;81;20946;-63
2022/04/01 10:32:47;;;;;;;1.60;1.50;;;;;;;8.32;82.36;97201.36;1755807;81;21001;-62
2022/04/01 10:35:35;;;;;;;3.42;2.00;;;;;;;8.30;82.34;97207.89;1718566;83;20904;-62
2022/04/01 10:38:15;;;;;;;2.25;1.47;;;;;;;8.35;82.00;97208.89;1719498;83;21218;-65
2022/04/01 10:40:46;;;;;;;2.05;1.40;;;;;;;8.41;81.51;97208.56;1755591;81;20910;-65
2022/04/01 10:43:28;;;;;;;1.87;1.40;;;;;;;8.43;81.56;97217.11;1721455;81;20918;-65
2022/04/01 10:46:10;;;;;;;3.20;2.72;;;;;;;8.46;81.15;97213.53;1755544;81;20933;-65
2022/04/01 10:51:46;;;;;;;3.37;3.08;;;;;;;8.54;80.29;97202.69;1755802;81;21190;-65
2022/04/01 10:54:16;;;;;;;2.75;2.08;;;;;;;8.43;80.68;97198.05;1717826;83;20943;-64
2022/04/01 10:57:05;;;;;;;1.70;1.57;;;;;;;8.34;81.37;97195.33;1755574;81;20939;-63
2022/04/01 10:59:45;;;;;;;1.55;1.45;;;;;;;8.29;83.86;97196.48;1755946;81;21008;-64
2022/04/01 11:02:16;;;;;;;1.60;1.50;;;;;;;8.27;84.42;97187.94;1719090;83;21028;-62
2022/04/01 11:04:45;;;;;;;1.92;1.72;;;;;;;8.32;84.73;97189.94;1756036;81;21160;-64
2022/04/01 11:07:26;;;;;;;1.60;1.50;;;;;;;8.25;85.87;97191.28;1727111;81;21001;-63
2022/04/01 11:09:56;;;;;;;1.45;1.35;;;;;;;8.26;85.43;97188.13;1754974;81;20994;-65
2022/04/01 11:12:30;;;;;;;2.00;1.90;;;;;;;8.22;85.33;97194.34;1747715;80;21551;-64
2022/04/01 11:15:09;;;;;;;1.60;1.50;;;;;;;8.22;85.28;97194.34;1735832;82;21040;-62
2022/04/01 11:17:46;;;;;;;1.65;1.52;;;;;;;8.23;85.09;97183.25;1723946;82;22160;-62
2022/04/01 11:20:27;;;;;;;2.35;1.47;;;;;;;8.27;85.41;97181.31;1735663;82;20978;-66
2022/04/01 11:23:06;;;;;;;2.83;1.60;;;;;;;8.25;85.80;97185.98;1735532;82;20855;-64
2022/04/01 11:25:42;;;;;;;1.50;1.40;;;;;;;8.25;84.97;97191.28;1735212;82;20950;-63
2022/04/01 11:28:13;;;;;;;2.15;1.40;;;;;;;8.18;85.06;97191.83;1735750;82;20891;-62
2022/04/01 11:30:47;;;;;;;2.62;1.37;;;;;;;8.29;85.71;97195.16;1724426;82;21269;-62
2022/04/01 11:33:19;;;;;;;1.50;1.40;;;;;;;8.36;85.46;97196.46;1729635;82;20934;-64
2022/04/01 11:35:51;;;;;;;2.02;1.75;;;;;;;8.39;85.18;97192.89;1674394;84;20902;-63
2022/04/01 11:38:21;;;;;;;1.40;1.30;;;;;;;8.38;84.81;97189.11;1700194;84;20954;-65
2022/04/01 11:40:53;;;;;;;1.30;1.20;;;;;;;8.37;84.77;97198.09;1700421;84;21432;-64
2022/04/01 11:43:22;;;;;;;2.47;1.50;;;;;;;8.32;84.38;97196.56;1700198;84;21141;-66
2022/04/01 11:46:05;;;;;;;1.87;1.45;;;;;;;8.31;84.05;97198.94;1700088;84;21519;-63
2022/04/01 11:48:41;;;;;;;2.25;1.52;;;;;;;8.35;84.08;97206.24;1700268;84;21029;-64
2022/04/01 11:51:19;;;;;;;1.55;1.37;;;;;;;8.38;84.25;97206.33;1700489;84;21700;-64
2022/04/01 11:53:51;;;;;;;1.85;1.50;;;;;;;8.40;84.93;97193.17;1695126;84;20918;-62
2022/04/01 11:56:23;;;;;;;1.37;1.30;;;;;;;8.40;85.67;97205.60;1682206;85;21026;-66
2022/04/01 11:59:05;;;;;;;2.20;1.90;;;;;;;8.43;86.10;97199.89;1700170;84;21607;-65
2022/04/01 12:01:54;;;;;;;2.25;2.05;;;;;;;8.47;87.44;97198.45;1699845;84;20966;-64
2022/04/01 12:04:14;;;;;;;2.27;1.72;;;;;;;8.48;87.21;97196.09;1696488;84;20977;-62
2022/04/01 12:09:31;;;;;;;1.77;1.67;;;;;;;8.44;89.44;97199.69;1673078;84;24977;-62
2022/04/01 12:12:01;;;;;;;1.80;1.60;;;;;;;8.50;87.43;97197.50;1702745;83;21521;-61
2022/04/01 12:14:30;;;;;;;1.30;1.20;;;;;;;8.52;87.18;97199.45;1719707;83;21031;-63
2022/04/01 12:16:59;;;;;;;1.20;1.10;;;;;;;8.60;88.29;97197.84;1756441;81;20871;-63
2022/04/01 12:19:30;;;;;;;1.32;1.10;;;;;;;8.69;89.27;97197.91;1700102;81;21416;-62
2022/04/01 12:21:59;;;;;;;1.10;1.00;;;;;;;8.59;88.91;97200.22;1754814;81;21223;-61
2022/04/01 12:24:34;;;;;;;1.20;1.10;;;;;;;8.51;89.78;97198.31;1756615;81;40445;-65